createdAt,value
2022-12-03T00:00:42.624Z,63.30
2022-12-03T00:02:44.540Z,73.28
2022-12-03T00:04:46.378Z,64.35
2022-12-03T00:06:48.338Z,59.15
2022-12-03T00:08:50.061Z,65.35
2022-12-03T00:10:53.041Z,62.75
2022-12-03T00:12:54.725Z,54.33
2022-12-03T00:15:02.393Z,52.30
2022-12-03T00:17:04.442Z,64.22
2022-12-03T00:19:06.205Z,54.95
2022-12-03T00:21:07.962Z,56.20
2022-12-03T00:23:09.864Z,61.67
2022-12-03T00:25:11.713Z,77.90
2022-12-03T00:27:13.549Z,60.55
2022-12-03T00:29:15.695Z,62.65
2022-12-03T00:31:17.832Z,59.80
2022-12-03T00:33:20.777Z,56.10
2022-12-03T00:35:22.562Z,71.72
2022-12-03T00:37:24.362Z,68.25
2022-12-03T00:39:26.193Z,75.10
2022-12-03T00:41:28.177Z,59.45
2022-12-03T00:43:29.956Z,70.53
2022-12-03T00:45:31.832Z,68.07
2022-12-03T00:47:34.331Z,58.88
2022-12-03T00:49:36.181Z,57.78
2022-12-03T00:51:37.916Z,58.28
2022-12-03T00:53:39.745Z,54.58
2022-12-03T00:55:41.646Z,60.65
2022-12-03T00:57:43.608Z,63.40
2022-12-03T00:59:45.537Z,59.13
2022-12-03T01:01:47.529Z,54.63
2022-12-03T01:03:49.309Z,67.07
2022-12-03T01:05:51.353Z,58.75
2022-12-03T01:07:53.340Z,63.42
2022-12-03T01:09:55.156Z,58.65
2022-12-03T01:11:56.971Z,52.55
2022-12-03T01:13:58.867Z,55.58
2022-12-03T01:16:00.640Z,51.80
2022-12-03T01:18:02.580Z,65.65
2022-12-03T01:20:08.574Z,56.47
2022-12-03T01:22:10.296Z,62.85
2022-12-03T01:24:12.400Z,54.15
2022-12-03T01:26:14.166Z,56.97
2022-12-03T01:28:15.924Z,58.03
2022-12-03T01:30:17.920Z,61.45
2022-12-03T01:32:19.954Z,54.42
2022-12-03T01:34:21.782Z,54.75
2022-12-03T01:36:23.683Z,64.53
2022-12-03T01:38:25.464Z,60.58
2022-12-03T01:40:27.169Z,61.13
2022-12-03T01:42:35.117Z,58.72
2022-12-03T01:44:39.603Z,61.25
2022-12-03T01:46:42.509Z,61.78
2022-12-03T01:48:45.346Z,59.90
2022-12-03T01:50:47.351Z,53.08
2022-12-03T01:52:49.959Z,60.70
2022-12-03T01:54:56.010Z,65.87
2022-12-03T01:56:58.980Z,60.17
2022-12-03T01:59:00.765Z,65.35
2022-12-03T02:01:10.270Z,57.97
2022-12-03T02:03:17.268Z,64.53
2022-12-03T02:05:26.227Z,61.50
2022-12-03T02:07:33.770Z,67.10
2022-12-03T02:09:35.712Z,68.10
2022-12-03T02:11:49.615Z,66.53
2022-12-03T02:16:02.432Z,71.82
2022-12-03T02:18:04.362Z,67.10
2022-12-03T02:20:08.434Z,68.45
2022-12-03T02:22:34.782Z,68.75
2022-12-03T02:25:15.237Z,80.70
2022-12-03T02:27:17.484Z,69.55
2022-12-03T02:29:19.304Z,75.78
2022-12-03T02:31:21.332Z,73.57
2022-12-03T02:33:23.145Z,79.88
2022-12-03T02:35:27.817Z,74.43
2022-12-03T02:37:34.186Z,70.20
2022-12-03T02:39:38.604Z,78.53
2022-12-03T02:41:40.516Z,85.93
2022-12-03T02:43:42.212Z,83.20
2022-12-03T02:45:46.930Z,85.25
2022-12-03T02:47:54.349Z,84.47
2022-12-03T02:49:56.911Z,78.95
2022-12-03T02:51:58.927Z,82.95
2022-12-03T02:54:01.258Z,79.57
2022-12-03T02:56:03.815Z,83.97
2022-12-03T02:58:05.794Z,88.95
2022-12-03T03:00:10.578Z,84.03
2022-12-03T03:02:14.262Z,82.63
2022-12-03T03:04:16.487Z,79.95
2022-12-03T03:06:19.991Z,88.88
2022-12-03T03:10:23.859Z,83.38
2022-12-03T03:12:26.097Z,91.82
2022-12-03T03:14:27.871Z,82.10
2022-12-03T03:16:29.778Z,81.45
2022-12-03T03:18:32.855Z,87.15
2022-12-03T03:20:35.526Z,80.93
2022-12-03T03:22:40.656Z,79.80
2022-12-03T03:24:42.664Z,77.65
2022-12-03T03:26:44.654Z,87.20
2022-12-03T03:28:49.355Z,89.03
2022-12-03T03:30:51.440Z,78.80
2022-12-03T03:32:53.340Z,81.00
2022-12-03T03:34:56.326Z,73.75
2022-12-03T03:36:58.497Z,81.57
2022-12-03T03:39:00.417Z,73.95
2022-12-03T03:41:05.957Z,71.10
2022-12-03T03:43:07.881Z,69.75
2022-12-03T03:45:09.889Z,78.93
2022-12-03T03:47:12.370Z,75.20
2022-12-03T03:49:14.298Z,72.28
2022-12-03T03:51:17.622Z,72.20
2022-12-03T03:53:20.818Z,81.13
2022-12-03T03:55:23.049Z,68.28
2022-12-03T03:57:24.839Z,74.85
2022-12-03T03:59:26.774Z,71.32
2022-12-03T04:01:30.085Z,68.60
2022-12-03T04:03:31.863Z,66.72
2022-12-03T04:05:33.740Z,84.30
2022-12-03T04:07:35.538Z,70.95
2022-12-03T04:09:37.362Z,84.57
2022-12-03T04:11:39.121Z,75.00
2022-12-03T04:13:41.012Z,77.53
2022-12-03T04:15:42.739Z,82.05
2022-12-03T04:17:44.547Z,91.38
2022-12-03T04:19:46.528Z,71.22
2022-12-03T04:21:48.238Z,73.88
2022-12-03T04:23:50.146Z,80.45
2022-12-03T04:25:52.139Z,92.20
2022-12-03T04:27:54.226Z,110.78
2022-12-03T04:29:56.184Z,93.50
2022-12-03T04:31:58.109Z,82.93
2022-12-03T04:33:59.793Z,88.10
2022-12-03T04:36:01.689Z,115.32
2022-12-03T04:38:03.651Z,100.20
2022-12-03T04:40:06.170Z,96.38
2022-12-03T04:42:08.184Z,82.88
2022-12-03T04:44:10.023Z,88.88
2022-12-03T04:46:11.739Z,81.03
2022-12-03T04:48:13.620Z,102.57
2022-12-03T04:50:15.677Z,77.90
2022-12-03T04:52:19.409Z,80.90
2022-12-03T04:54:21.167Z,72.30
2022-12-03T04:56:22.995Z,74.20
2022-12-03T04:58:24.781Z,71.13
2022-12-03T05:00:26.621Z,73.25
2022-12-03T05:02:28.625Z,66.22
2022-12-03T05:04:30.546Z,69.25
2022-12-03T05:06:32.803Z,74.07
2022-12-03T05:08:34.735Z,71.95
2022-12-03T05:10:36.432Z,69.07
2022-12-03T05:12:38.473Z,72.97
2022-12-03T05:14:40.277Z,63.05
2022-12-03T05:16:42.038Z,71.15
2022-12-03T05:18:44.024Z,68.78
2022-12-03T05:20:52.975Z,74.07
2022-12-03T05:22:55.093Z,72.45
2022-12-03T05:24:57.049Z,68.90
2022-12-03T05:26:58.937Z,73.50
2022-12-03T05:29:00.659Z,93.05
2022-12-03T05:31:02.726Z,93.63
2022-12-03T05:33:04.698Z,86.40
2022-12-03T05:35:06.642Z,78.03
2022-12-03T05:37:08.599Z,77.22
2022-12-03T05:39:10.587Z,70.28
2022-12-03T05:41:12.265Z,86.95
2022-12-03T05:43:14.146Z,94.28
2022-12-03T05:45:16.051Z,81.20
2022-12-03T05:47:17.728Z,71.53
2022-12-03T05:49:19.593Z,71.45
2022-12-03T05:51:21.381Z,59.75
2022-12-03T05:53:23.123Z,63.63
2022-12-03T05:55:25.812Z,61.72
2022-12-03T05:57:27.625Z,61.73
2022-12-03T05:59:29.318Z,62.10
2022-12-03T06:01:31.293Z,70.00
2022-12-03T06:03:33.187Z,75.13
2022-12-03T06:05:35.107Z,81.22
2022-12-03T06:07:37.080Z,78.18
2022-12-03T06:09:38.882Z,69.13
2022-12-03T06:11:40.595Z,73.00
2022-12-03T06:13:42.560Z,69.93
2022-12-03T06:15:44.411Z,64.00
2022-12-03T06:17:46.342Z,71.85
2022-12-03T06:19:48.124Z,72.32
2022-12-03T06:21:49.881Z,130.75
2022-12-03T06:23:51.596Z,189.50
2022-12-03T06:25:53.392Z,114.10
2022-12-03T06:27:55.278Z,162.02
2022-12-03T06:29:57.291Z,81.50
2022-12-03T06:31:59.203Z,74.10
2022-12-03T06:34:00.957Z,62.33
2022-12-03T06:36:02.674Z,73.63
2022-12-03T06:38:04.520Z,68.80
2022-12-03T06:40:07.134Z,77.70
2022-12-03T06:42:08.886Z,91.63
2022-12-03T06:44:10.756Z,65.18
2022-12-03T06:46:12.613Z,64.72
2022-12-03T06:48:14.927Z,66.68
2022-12-03T06:50:16.877Z,75.75
2022-12-03T06:52:18.726Z,74.28
2022-12-03T06:54:20.445Z,60.85
2022-12-03T06:56:22.688Z,65.45
2022-12-03T06:58:24.749Z,63.65
2022-12-03T07:00:26.494Z,63.05
2022-12-03T07:02:28.535Z,58.72
2022-12-03T07:04:30.455Z,60.47
2022-12-03T07:06:32.169Z,69.03
2022-12-03T07:08:34.393Z,69.32
2022-12-03T07:10:36.176Z,77.57
2022-12-03T07:12:37.865Z,64.90
2022-12-03T07:14:40.108Z,77.15
2022-12-03T07:16:41.829Z,101.07
2022-12-03T07:18:43.572Z,74.13
2022-12-03T07:20:45.459Z,93.80
2022-12-03T07:22:47.362Z,81.68
2022-12-03T07:24:49.060Z,72.50
2022-12-03T07:26:50.917Z,88.82
2022-12-03T07:28:52.783Z,64.25
2022-12-03T07:30:54.995Z,61.20
2022-12-03T07:32:56.892Z,55.58
2022-12-03T07:34:58.793Z,58.47
2022-12-03T07:37:00.473Z,63.83
2022-12-03T07:39:02.414Z,60.03
2022-12-03T07:41:04.298Z,69.93
2022-12-03T07:43:06.072Z,74.80
2022-12-03T07:45:08.706Z,72.38
2022-12-03T07:47:10.602Z,69.93
2022-12-03T07:49:12.368Z,63.47
2022-12-03T07:51:15.508Z,66.28
2022-12-03T07:53:17.541Z,68.70
2022-12-03T07:55:19.224Z,77.57
2022-12-03T07:57:21.078Z,79.88
2022-12-03T07:59:22.962Z,83.13
2022-12-03T08:01:24.784Z,70.63
2022-12-03T08:03:26.690Z,67.25
2022-12-03T08:05:28.872Z,70.50
2022-12-03T08:07:30.575Z,95.70
2022-12-03T08:09:32.338Z,98.82
2022-12-03T08:11:34.065Z,92.57
2022-12-03T08:13:35.746Z,83.22
2022-12-03T08:15:39.667Z,83.35
2022-12-03T08:17:42.769Z,79.65
2022-12-03T08:19:47.149Z,85.22
2022-12-03T08:21:49.117Z,92.43
2022-12-03T08:23:51.293Z,76.00
2022-12-03T08:25:53.223Z,71.82
2022-12-03T08:28:11.065Z,71.80
2022-12-03T08:30:16.668Z,71.47
2022-12-03T08:32:18.420Z,68.22
2022-12-03T08:34:26.525Z,67.60
2022-12-03T08:36:33.837Z,82.28
2022-12-03T08:38:35.577Z,79.97
2022-12-03T08:40:41.650Z,86.28
2022-12-03T08:42:43.530Z,73.78
2022-12-03T08:44:45.348Z,79.60
2022-12-03T08:46:53.234Z,72.28
2022-12-03T08:48:55.362Z,67.43
2022-12-03T08:51:21.607Z,64.93
2022-12-03T08:53:26.494Z,69.10
2022-12-03T08:55:34.207Z,67.90
2022-12-03T08:57:36.290Z,73.20
2022-12-03T08:59:40.309Z,73.18
2022-12-03T09:01:47.324Z,82.13
2022-12-03T09:03:54.089Z,73.85
2022-12-03T09:05:55.936Z,74.68
2022-12-03T09:07:57.779Z,82.75
2022-12-03T09:09:59.520Z,84.65
2022-12-03T09:12:01.336Z,86.80
2022-12-03T09:14:03.515Z,77.55
2022-12-03T09:16:05.653Z,81.57
2022-12-03T09:18:07.465Z,80.70
2022-12-03T09:20:09.740Z,80.75
2022-12-03T09:22:11.492Z,79.50
2022-12-03T09:24:13.385Z,90.53
2022-12-03T09:26:15.220Z,100.00
2022-12-03T09:28:16.961Z,88.03
2022-12-03T09:30:18.936Z,82.90
2022-12-03T09:32:20.763Z,73.20
2022-12-03T09:34:22.566Z,78.03
2022-12-03T09:36:24.496Z,79.25
2022-12-03T09:38:26.837Z,83.13
2022-12-03T09:40:29.264Z,101.68
2022-12-03T09:42:31.065Z,120.28
2022-12-03T09:44:34.634Z,124.70
2022-12-03T09:48:40.469Z,94.57
2022-12-03T09:50:42.814Z,107.78
2022-12-03T09:52:44.669Z,105.97
2022-12-03T09:54:47.662Z,108.68
2022-12-03T09:56:49.692Z,100.25
2022-12-03T09:58:51.559Z,104.75
2022-12-03T10:00:53.534Z,101.78
2022-12-03T10:02:59.279Z,86.22
2022-12-03T10:05:01.073Z,82.65
2022-12-03T10:07:02.896Z,96.60
2022-12-03T10:09:04.827Z,83.47
2022-12-03T10:11:06.550Z,78.03
2022-12-03T10:13:13.412Z,80.68
2022-12-03T10:15:17.996Z,74.82
2022-12-03T10:17:19.857Z,78.45
2022-12-03T10:19:33.774Z,86.03
2022-12-03T10:23:38.134Z,80.47
2022-12-03T10:25:51.480Z,86.43
2022-12-03T10:27:59.860Z,88.40
2022-12-03T10:30:04.208Z,82.80
2022-12-03T10:32:08.941Z,73.40
2022-12-03T10:34:11.180Z,89.53
2022-12-03T10:36:31.029Z,94.40
2022-12-03T10:38:32.899Z,99.80
2022-12-03T10:40:37.072Z,105.65
2022-12-03T10:42:40.782Z,95.18
2022-12-03T10:44:42.529Z,94.97
2022-12-03T10:46:45.497Z,88.72
2022-12-03T10:49:08.344Z,80.05
2022-12-03T10:51:20.330Z,80.38
2022-12-03T10:53:26.327Z,80.22
2022-12-03T10:55:34.294Z,83.80
2022-12-03T10:57:36.856Z,72.05
2022-12-03T10:59:41.672Z,80.85
2022-12-03T11:03:46.176Z,126.53
2022-12-03T11:05:48.831Z,78.78
2022-12-03T11:07:50.634Z,94.50
2022-12-03T11:09:53.941Z,146.13
2022-12-03T11:11:56.192Z,87.25
2022-12-03T11:14:03.529Z,102.68
2022-12-03T11:16:07.205Z,88.38
2022-12-03T11:18:09.021Z,94.32
2022-12-03T11:20:22.859Z,81.03
2022-12-03T11:22:39.553Z,86.13
2022-12-03T11:24:41.279Z,94.60
2022-12-03T11:26:42.918Z,91.30
2022-12-03T11:28:47.735Z,97.00
2022-12-03T11:30:49.452Z,133.50
2022-12-03T11:33:00.684Z,103.40
2022-12-03T11:35:02.555Z,91.38
2022-12-03T11:37:10.008Z,91.70
2022-12-03T11:39:11.770Z,91.13
2022-12-03T11:41:20.891Z,88.47
2022-12-03T11:43:54.296Z,91.13
2022-12-03T11:46:01.031Z,72.97
2022-12-03T11:48:13.637Z,73.95
2022-12-03T11:50:18.243Z,76.00
2022-12-03T11:52:44.318Z,90.03
2022-12-03T11:54:52.039Z,86.50
2022-12-03T11:56:54.671Z,70.05
2022-12-03T11:59:02.773Z,104.72
2022-12-03T12:01:06.802Z,87.78
2022-12-03T12:03:33.352Z,109.13
2022-12-03T12:05:35.545Z,67.25
2022-12-03T12:07:37.502Z,75.80
2022-12-03T12:09:50.896Z,128.48
2022-12-03T12:11:52.785Z,90.78
2022-12-03T12:13:56.129Z,84.30
2022-12-03T12:16:02.804Z,444.60
2022-12-03T12:18:35.175Z,139.27
2022-12-03T12:20:37.325Z,169.77
2022-12-03T12:22:39.142Z,265.77
2022-12-03T12:24:40.785Z,141.82
2022-12-03T12:26:51.018Z,111.72
2022-12-03T12:28:52.735Z,129.27
2022-12-03T12:30:54.465Z,110.57
2022-12-03T12:33:23.338Z,92.57
2022-12-03T12:35:27.367Z,110.75
2022-12-03T12:37:56.803Z,87.20
2022-12-03T12:40:06.743Z,97.90
2022-12-03T12:42:28.197Z,85.95
2022-12-03T12:44:29.879Z,81.93
2022-12-03T12:46:48.311Z,107.07
2022-12-03T12:48:50.420Z,89.22
2022-12-03T12:51:00.215Z,124.50
2022-12-03T12:53:11.399Z,173.90
2022-12-03T12:55:13.130Z,99.90
2022-12-03T12:57:21.580Z,185.88
2022-12-03T12:59:23.498Z,136.77
2022-12-03T13:01:30.655Z,107.13
2022-12-03T13:03:34.725Z,99.80
2022-12-03T13:05:42.276Z,131.02
2022-12-03T13:07:45.069Z,84.78
2022-12-03T13:09:46.846Z,93.75
2022-12-03T13:11:58.613Z,98.35
2022-12-03T13:14:10.578Z,80.82
2022-12-03T13:16:19.292Z,91.22
2022-12-03T13:18:27.417Z,86.85
2022-12-03T13:20:33.364Z,95.88
2022-12-03T13:22:35.102Z,122.05
2022-12-03T13:24:43.356Z,106.80
2022-12-03T13:26:45.238Z,141.05
2022-12-03T13:28:46.961Z,123.50
2022-12-03T13:30:48.896Z,158.65
2022-12-03T13:32:50.782Z,222.32
2022-12-03T13:34:52.532Z,98.63
2022-12-03T13:36:58.483Z,156.98
2022-12-03T13:39:00.929Z,101.97
2022-12-03T13:41:03.439Z,135.35
2022-12-03T13:43:15.339Z,218.88
2022-12-03T13:45:17.214Z,169.65
2022-12-03T13:47:21.270Z,92.15
2022-12-03T13:49:24.563Z,93.32
2022-12-03T13:51:29.854Z,93.53
2022-12-03T13:53:38.779Z,83.03
2022-12-03T13:55:45.618Z,90.22
2022-12-03T13:57:47.407Z,131.75
2022-12-03T13:59:49.157Z,160.02
2022-12-03T14:01:51.043Z,108.60
2022-12-03T14:03:53.010Z,116.55
2022-12-03T14:05:54.740Z,120.93
2022-12-03T14:07:56.719Z,144.30
2022-12-03T14:09:58.703Z,179.80
2022-12-03T14:12:00.450Z,136.55
2022-12-03T14:14:02.315Z,229.75
2022-12-03T14:16:04.259Z,238.30
2022-12-03T14:18:06.129Z,119.60
2022-12-03T14:20:08.401Z,182.98
2022-12-03T14:22:10.336Z,233.70
2022-12-03T14:24:12.076Z,148.80
2022-12-03T14:26:14.153Z,176.57
2022-12-03T14:28:15.905Z,290.50
2022-12-03T14:30:17.685Z,182.05
2022-12-03T14:32:19.520Z,164.40
2022-12-03T14:34:21.706Z,99.28
2022-12-03T14:36:23.446Z,131.98
2022-12-03T14:38:25.441Z,118.70
2022-12-03T14:40:27.335Z,107.78
2022-12-03T14:42:29.105Z,113.68
2022-12-03T14:44:30.996Z,153.80
2022-12-03T14:46:32.882Z,111.97
2022-12-03T14:48:34.633Z,142.73
2022-12-03T14:50:36.830Z,131.65
2022-12-03T14:52:38.589Z,182.20
2022-12-03T14:54:41.323Z,126.22
2022-12-03T14:56:43.106Z,115.80
2022-12-03T14:58:44.954Z,157.15
2022-12-03T15:00:46.632Z,259.98
2022-12-03T15:02:48.644Z,251.05
2022-12-03T15:04:50.607Z,114.40
2022-12-03T15:06:52.366Z,207.27
2022-12-03T15:08:54.189Z,462.60
2022-12-03T15:10:56.327Z,277.77
2022-12-03T15:12:58.043Z,210.63
2022-12-03T15:15:00.528Z,228.38
2022-12-03T15:17:02.318Z,698.33
2022-12-03T15:19:04.127Z,375.63
2022-12-03T15:21:07.481Z,210.48
2022-12-03T15:23:14.036Z,207.02
2022-12-03T15:25:16.300Z,184.23
2022-12-03T15:27:18.104Z,468.27
2022-12-03T15:29:21.019Z,227.63
2022-12-03T15:31:22.831Z,143.00
2022-12-03T15:33:24.591Z,241.30
2022-12-03T15:35:26.368Z,275.50
2022-12-03T15:37:28.081Z,158.82
2022-12-03T15:39:29.884Z,199.38
2022-12-03T15:41:31.841Z,117.05
2022-12-03T15:43:33.553Z,293.33
2022-12-03T15:45:36.055Z,128.95
2022-12-03T15:47:37.816Z,190.10
2022-12-03T15:49:39.511Z,130.68
2022-12-03T15:51:41.414Z,114.13
2022-12-03T15:53:43.200Z,105.38
2022-12-03T15:55:44.900Z,113.88
2022-12-03T15:57:46.838Z,135.13
2022-12-03T15:59:49.199Z,162.57
2022-12-03T16:01:50.928Z,129.20
2022-12-03T16:03:52.768Z,173.13
2022-12-03T16:05:54.785Z,140.50
2022-12-03T16:07:56.624Z,132.05
2022-12-03T16:09:58.398Z,165.52
2022-12-03T16:12:00.192Z,172.48
2022-12-03T16:14:01.907Z,126.13
2022-12-03T16:16:03.851Z,129.68
2022-12-03T16:18:05.874Z,146.38
2022-12-03T16:20:08.405Z,125.88
2022-12-03T16:22:10.629Z,149.13
2022-12-03T16:24:12.397Z,137.05
2022-12-03T16:26:14.125Z,133.20
2022-12-03T16:28:16.144Z,131.20
2022-12-03T16:30:17.999Z,173.57
2022-12-03T16:32:19.729Z,124.45
2022-12-03T16:34:21.634Z,121.03
2022-12-03T16:36:23.587Z,123.63
2022-12-03T16:38:25.298Z,129.45
2022-12-03T16:40:27.165Z,127.00
2022-12-03T16:42:29.152Z,121.15
2022-12-03T16:44:31.137Z,151.07
2022-12-03T16:46:32.993Z,153.07
2022-12-03T16:48:34.776Z,148.40
2022-12-03T16:50:36.502Z,193.75
2022-12-03T16:52:38.470Z,237.55
2022-12-03T16:54:40.237Z,259.30
2022-12-03T16:56:41.977Z,227.85
2022-12-03T16:58:44.257Z,204.50
2022-12-03T17:00:46.025Z,151.55
2022-12-03T17:02:47.971Z,137.82
2022-12-03T17:04:49.906Z,139.40
2022-12-03T17:06:51.739Z,183.13
2022-12-03T17:08:53.423Z,195.35
2022-12-03T17:10:55.336Z,185.88
2022-12-03T17:13:12.450Z,164.18
2022-12-03T17:15:14.250Z,272.67
2022-12-03T17:17:16.039Z,172.13
2022-12-03T17:19:17.941Z,153.90
2022-12-03T17:21:19.691Z,136.10
2022-12-03T17:23:21.635Z,140.48
2022-12-03T17:25:23.615Z,137.68
2022-12-03T17:27:25.340Z,153.50
2022-12-03T17:29:27.251Z,153.27
2022-12-03T17:31:29.155Z,156.80
2022-12-03T17:33:30.914Z,153.50
2022-12-03T17:35:32.797Z,141.35
2022-12-03T17:37:34.560Z,152.05
2022-12-03T17:39:36.284Z,137.55
2022-12-03T17:41:38.130Z,143.13
2022-12-03T17:43:40.196Z,147.38
2022-12-03T17:45:41.899Z,153.85
2022-12-03T17:47:43.744Z,170.02
2022-12-03T17:49:45.549Z,145.20
2022-12-03T17:51:47.290Z,134.85
2022-12-03T17:53:49.053Z,134.68
2022-12-03T17:55:50.857Z,295.08
2022-12-03T17:57:52.541Z,278.25
2022-12-03T17:59:54.407Z,240.98
2022-12-03T18:01:56.315Z,161.48
2022-12-03T18:03:58.119Z,219.27
2022-12-03T18:06:00.160Z,180.30
2022-12-03T18:08:02.009Z,176.77
2022-12-03T18:10:04.139Z,131.75
2022-12-03T18:12:06.292Z,192.25
2022-12-03T18:14:08.032Z,135.45
2022-12-03T18:16:09.823Z,163.68
2022-12-03T18:18:11.848Z,139.93
2022-12-03T18:20:13.825Z,166.82
2022-12-03T18:22:16.517Z,128.75
2022-12-03T18:24:18.325Z,133.27
2022-12-03T18:26:20.316Z,133.27
2022-12-03T18:28:22.074Z,142.57
2022-12-03T18:30:24.265Z,137.05
2022-12-03T18:32:29.488Z,139.35
2022-12-03T18:34:31.676Z,140.68
2022-12-03T18:36:36.007Z,155.93
2022-12-03T18:38:37.984Z,130.65
2022-12-03T18:40:40.377Z,145.63
2022-12-03T18:42:42.160Z,136.32
2022-12-03T18:44:49.452Z,173.90
2022-12-03T18:46:53.999Z,150.73
2022-12-03T18:48:56.542Z,166.50
2022-12-03T18:50:58.223Z,159.18
2022-12-03T18:52:59.997Z,152.73
2022-12-03T18:55:01.935Z,156.98
2022-12-03T18:57:03.828Z,140.35
2022-12-03T18:59:05.595Z,134.80
2022-12-03T19:01:07.725Z,125.93
2022-12-03T19:03:10.289Z,137.43
2022-12-03T19:05:12.123Z,140.40
2022-12-03T19:07:14.436Z,140.10
2022-12-03T19:09:16.575Z,124.40
2022-12-03T19:11:18.414Z,138.68
2022-12-03T19:13:20.177Z,131.88
2022-12-03T19:15:21.869Z,143.50
2022-12-03T19:17:23.728Z,146.75
2022-12-03T19:19:25.604Z,161.27
2022-12-03T19:21:32.166Z,148.20
2022-12-03T19:23:36.435Z,160.98
2022-12-03T19:25:38.216Z,165.15
2022-12-03T19:27:39.963Z,178.60
2022-12-03T19:29:42.006Z,167.50
2022-12-03T19:31:43.768Z,164.88
2022-12-03T19:33:45.641Z,206.20
2022-12-03T19:35:47.389Z,170.52
2022-12-03T19:37:50.007Z,157.73
2022-12-03T19:39:54.967Z,170.40
2022-12-03T19:41:56.972Z,148.82
2022-12-03T19:43:59.056Z,157.52
2022-12-03T19:46:05.218Z,147.15
2022-12-03T19:48:07.187Z,144.60
2022-12-03T19:50:09.664Z,145.27
2022-12-03T19:52:11.403Z,167.70
2022-12-03T19:54:13.601Z,149.73
2022-12-03T19:56:18.117Z,175.73
2022-12-03T19:58:19.879Z,162.45
2022-12-03T20:00:21.780Z,159.68
2022-12-03T20:02:23.781Z,151.82
2022-12-03T20:04:25.568Z,152.82
2022-12-03T20:06:31.475Z,147.90
2022-12-03T20:08:33.376Z,165.43
2022-12-03T20:10:35.724Z,138.55
2022-12-03T20:12:37.605Z,153.70
2022-12-03T20:14:39.429Z,162.90
2022-12-03T20:16:41.606Z,154.00
2022-12-03T20:18:45.481Z,167.07
2022-12-03T20:20:47.229Z,175.70
2022-12-03T20:22:48.972Z,175.02
2022-12-03T20:24:50.791Z,193.93
2022-12-03T20:26:52.727Z,230.90
2022-12-03T20:28:55.145Z,174.00
2022-12-03T20:30:58.867Z,202.20
2022-12-03T20:33:00.898Z,189.27
2022-12-03T20:35:02.613Z,232.50
2022-12-03T20:37:04.639Z,260.30
2022-12-03T20:39:07.708Z,195.40
2022-12-03T20:41:17.550Z,223.35
2022-12-03T20:43:19.472Z,254.10
2022-12-03T20:45:21.285Z,361.33
2022-12-03T20:47:23.153Z,237.30
2022-12-03T20:49:24.866Z,220.00
2022-12-03T20:51:29.187Z,230.45
2022-12-03T20:53:30.971Z,276.73
2022-12-03T20:55:33.378Z,276.95
2022-12-03T20:57:35.059Z,192.35
2022-12-03T20:59:36.897Z,256.20
2022-12-03T21:01:39.181Z,224.38
2022-12-03T21:03:41.087Z,214.20
2022-12-03T21:05:42.984Z,254.15
2022-12-03T21:07:45.073Z,214.55
2022-12-03T21:09:46.927Z,199.55
2022-12-03T21:11:48.734Z,208.45
2022-12-03T21:13:51.001Z,241.52
2022-12-03T21:16:06.649Z,256.15
2022-12-03T21:18:09.921Z,212.25
2022-12-03T21:20:14.533Z,287.48
2022-12-03T21:22:18.427Z,214.73
2022-12-03T21:24:20.251Z,190.65
2022-12-03T21:26:22.288Z,203.40
2022-12-03T21:28:24.185Z,196.90
2022-12-03T21:30:26.026Z,193.70
2022-12-03T21:32:27.732Z,182.70
2022-12-03T21:34:35.948Z,196.93
2022-12-03T21:36:38.284Z,179.70
2022-12-03T21:38:40.530Z,183.75
2022-12-03T21:40:42.370Z,199.30
2022-12-03T21:42:44.203Z,189.07
2022-12-03T21:44:46.928Z,193.43
2022-12-03T21:47:09.264Z,173.27
2022-12-03T21:49:10.480Z,176.02
2022-12-03T21:51:14.358Z,177.73
2022-12-03T21:53:16.278Z,162.85
2022-12-03T21:55:18.253Z,183.27
2022-12-03T21:57:20.008Z,189.02
2022-12-03T21:59:21.966Z,171.13
2022-12-03T22:01:24.693Z,190.48
2022-12-03T22:03:26.513Z,175.77
2022-12-03T22:05:28.338Z,179.93
2022-12-03T22:07:33.430Z,183.43
2022-12-03T22:09:35.346Z,183.70
2022-12-03T22:11:37.181Z,170.02
2022-12-03T22:13:39.609Z,179.00
2022-12-03T22:15:41.320Z,165.40
2022-12-03T22:17:43.092Z,182.48
2022-12-03T22:19:44.840Z,168.32
2022-12-03T22:21:46.516Z,163.57
2022-12-03T22:23:48.329Z,166.55
2022-12-03T22:26:01.079Z,167.57
2022-12-03T22:28:02.819Z,164.82
2022-12-03T22:30:06.205Z,168.95
2022-12-03T22:32:07.984Z,166.27
2022-12-03T22:34:09.744Z,145.35
2022-12-03T22:36:19.646Z,162.73
2022-12-03T22:38:22.557Z,156.35
2022-12-03T22:40:24.260Z,147.82
2022-12-03T22:42:26.057Z,138.35
2022-12-03T22:44:27.982Z,157.85
2022-12-03T22:46:29.714Z,149.60
2022-12-03T22:48:34.175Z,155.00
2022-12-03T22:50:42.461Z,163.00
2022-12-03T22:52:44.177Z,151.93
2022-12-03T22:54:46.065Z,148.00
2022-12-03T22:56:47.904Z,130.55
2022-12-03T22:58:49.821Z,138.98
2022-12-03T23:00:52.932Z,147.35
2022-12-03T23:02:54.953Z,149.23
2022-12-03T23:04:56.662Z,159.57
2022-12-03T23:06:58.473Z,156.43
2022-12-03T23:09:00.303Z,163.48
2022-12-03T23:11:02.000Z,141.23
2022-12-03T23:13:05.927Z,124.07
2022-12-03T23:15:08.580Z,138.38
2022-12-03T23:17:10.266Z,133.00
2022-12-03T23:19:12.215Z,131.80
2022-12-03T23:21:28.903Z,133.10
2022-12-03T23:23:30.918Z,143.80
2022-12-03T23:25:32.626Z,145.75
2022-12-03T23:27:34.479Z,146.23
2022-12-03T23:29:36.187Z,139.95
2022-12-03T23:31:37.985Z,146.85
2022-12-03T23:33:39.776Z,131.48
2022-12-03T23:35:41.497Z,132.98
2022-12-03T23:37:43.668Z,147.18
2022-12-03T23:39:48.064Z,137.52
2022-12-03T23:41:53.604Z,137.00
2022-12-03T23:43:56.303Z,136.70
2022-12-03T23:46:06.559Z,137.83
2022-12-03T23:48:08.282Z,135.48
2022-12-03T23:50:10.576Z,124.03
2022-12-03T23:52:12.321Z,142.15
2022-12-03T23:54:14.023Z,134.95
2022-12-03T23:56:18.805Z,141.52
2022-12-03T23:58:20.757Z,136.73
